createdAt,value
2017-10-19T00:00:26.304Z,38.60
2017-10-19T00:01:01.007Z,35.13
2017-10-19T00:01:35.742Z,43.42
2017-10-19T00:02:10.448Z,34.53
2017-10-19T00:02:45.158Z,29.60
2017-10-19T00:03:19.909Z,34.75
2017-10-19T00:03:54.691Z,28.60
2017-10-19T00:04:29.391Z,32.60
2017-10-19T00:05:04.105Z,40.38
2017-10-19T00:05:38.815Z,40.75
2017-10-19T00:06:13.533Z,26.33
2017-10-19T00:06:48.275Z,31.02
2017-10-19T00:07:22.971Z,37.80
2017-10-19T00:07:57.696Z,35.35
2017-10-19T00:08:32.221Z,34.33
2017-10-19T00:09:06.935Z,29.92
2017-10-19T00:09:41.636Z,27.30
2017-10-19T00:10:16.346Z,26.62
2017-10-19T00:10:51.053Z,30.90
2017-10-19T00:11:25.572Z,28.60
2017-10-19T00:12:00.624Z,24.90
2017-10-19T00:12:35.343Z,31.83
2017-10-19T00:13:10.052Z,30.35
2017-10-19T00:13:44.773Z,30.70
2017-10-19T00:14:19.494Z,23.30
2017-10-19T00:14:54.230Z,32.28
2017-10-19T00:15:28.944Z,32.58
2017-10-19T00:16:03.666Z,27.48
2017-10-19T00:16:38.384Z,31.20
2017-10-19T00:17:13.111Z,27.55
2017-10-19T00:17:47.841Z,37.88
2017-10-19T00:18:22.563Z,35.60
2017-10-19T00:18:57.289Z,34.03
2017-10-19T00:19:32.012Z,39.38
2017-10-19T00:20:06.728Z,24.70
2017-10-19T00:20:41.447Z,32.45
2017-10-19T00:21:16.165Z,31.02
2017-10-19T00:21:50.868Z,33.47
2017-10-19T00:22:25.619Z,29.65
2017-10-19T00:23:00.362Z,33.22
2017-10-19T00:23:35.077Z,26.52
2017-10-19T00:24:09.803Z,31.62
2017-10-19T00:24:44.524Z,34.50
2017-10-19T00:25:19.263Z,34.38
2017-10-19T00:25:54.013Z,27.17
2017-10-19T00:26:28.753Z,37.90
2017-10-19T00:27:03.545Z,31.90
2017-10-19T00:27:38.271Z,26.15
2017-10-19T00:28:12.986Z,30.62
2017-10-19T00:28:47.706Z,35.35
2017-10-19T00:29:22.412Z,36.05
2017-10-19T00:29:57.170Z,35.40
2017-10-19T00:30:31.880Z,31.00
2017-10-19T00:31:06.595Z,34.05
2017-10-19T00:31:41.311Z,30.98
2017-10-19T00:32:16.043Z,33.63
2017-10-19T00:32:50.772Z,29.73
2017-10-19T00:33:25.500Z,32.65
2017-10-19T00:34:00.233Z,31.17
2017-10-19T00:34:34.960Z,34.17
2017-10-19T00:35:09.696Z,45.85
2017-10-19T00:35:44.424Z,36.08
2017-10-19T00:36:19.135Z,30.73
2017-10-19T00:36:53.860Z,30.62
2017-10-19T00:37:28.588Z,36.55
2017-10-19T00:38:03.025Z,43.97
2017-10-19T00:38:37.782Z,30.80
2017-10-19T00:39:12.505Z,31.00
2017-10-19T00:39:47.233Z,26.67
2017-10-19T00:41:13.488Z,41.80
2017-10-19T00:41:48.221Z,37.97
2017-10-19T00:42:22.950Z,34.53
2017-10-19T00:42:57.716Z,37.25
2017-10-19T00:43:32.438Z,27.50
2017-10-19T00:44:07.153Z,34.50
2017-10-19T00:44:41.864Z,29.58
2017-10-19T00:45:16.595Z,37.00
2017-10-19T00:45:51.341Z,29.58
2017-10-19T00:46:26.079Z,35.20
2017-10-19T00:47:00.860Z,40.55
2017-10-19T00:47:35.582Z,26.75
2017-10-19T00:48:10.386Z,30.20
2017-10-19T00:48:45.144Z,46.15
2017-10-19T00:49:19.885Z,39.00
2017-10-19T00:49:54.625Z,41.47
2017-10-19T00:50:29.365Z,45.05
2017-10-19T00:51:04.105Z,35.22
2017-10-19T00:51:38.839Z,32.15
2017-10-19T00:52:13.557Z,34.85
2017-10-19T00:52:47.938Z,35.00
2017-10-19T00:53:22.675Z,28.33
2017-10-19T00:53:57.396Z,35.45
2017-10-19T00:54:32.219Z,38.50
2017-10-19T00:55:07.379Z,37.42
2017-10-19T00:55:41.763Z,49.33
2017-10-19T00:56:16.143Z,32.88
2017-10-19T00:56:50.522Z,37.28
2017-10-19T00:57:24.916Z,30.35
2017-10-19T00:57:59.297Z,37.05
2017-10-19T00:58:33.704Z,31.37
2017-10-19T00:59:08.266Z,36.80
2017-10-19T00:59:42.659Z,44.20
2017-10-19T01:00:19.793Z,32.28
2017-10-19T01:00:54.837Z,29.33
2017-10-19T01:01:29.576Z,29.45
2017-10-19T01:02:03.951Z,37.35
2017-10-19T01:02:38.690Z,39.50
2017-10-19T01:03:13.444Z,33.92
2017-10-19T01:03:48.451Z,35.72
2017-10-19T01:04:22.841Z,34.47
2017-10-19T01:04:57.612Z,38.85
2017-10-19T01:05:32.360Z,39.90
2017-10-19T01:06:07.074Z,38.53
2017-10-19T01:06:41.800Z,35.60
2017-10-19T01:07:16.513Z,34.83
2017-10-19T01:07:50.890Z,36.47
2017-10-19T01:08:26.509Z,32.58
2017-10-19T01:09:01.477Z,32.90
2017-10-19T01:09:36.210Z,39.65
2017-10-19T01:10:10.931Z,32.97
2017-10-19T01:10:45.711Z,21.45
2017-10-19T01:11:20.420Z,30.70
2017-10-19T01:11:55.164Z,35.13
2017-10-19T01:12:29.545Z,30.77
2017-10-19T01:13:04.287Z,32.22
2017-10-19T01:13:39.004Z,37.75
2017-10-19T01:14:13.731Z,33.25
2017-10-19T01:14:48.462Z,40.35
2017-10-19T01:15:23.187Z,33.85
2017-10-19T01:15:57.564Z,39.55
2017-10-19T01:16:32.272Z,31.85
2017-10-19T01:17:06.985Z,37.83
2017-10-19T01:17:41.700Z,41.35
2017-10-19T01:18:16.064Z,32.88
2017-10-19T01:18:50.775Z,32.88
2017-10-19T01:19:26.570Z,33.42
2017-10-19T01:20:00.953Z,29.85
2017-10-19T01:20:35.758Z,41.78
2017-10-19T01:21:10.141Z,27.87
2017-10-19T01:21:44.515Z,43.72
2017-10-19T01:22:18.881Z,32.70
2017-10-19T01:22:53.595Z,32.47
2017-10-19T01:23:28.313Z,34.75
2017-10-19T01:24:03.576Z,27.83
2017-10-19T01:24:38.391Z,42.62
2017-10-19T01:25:12.765Z,33.67
2017-10-19T01:25:47.138Z,38.00
2017-10-19T01:26:21.511Z,24.25
2017-10-19T01:26:56.229Z,34.83
2017-10-19T01:27:30.631Z,36.95
2017-10-19T01:28:06.207Z,31.90
2017-10-19T01:28:40.584Z,30.12
2017-10-19T01:29:14.940Z,33.28
2017-10-19T01:29:49.659Z,38.05
2017-10-19T01:30:24.372Z,34.75
2017-10-19T01:30:58.754Z,35.97
2017-10-19T01:31:33.294Z,27.05
2017-10-19T01:32:07.828Z,33.75
2017-10-19T01:32:42.211Z,33.35
2017-10-19T01:33:16.584Z,35.28
2017-10-19T01:33:51.349Z,26.85
2017-10-19T01:34:25.799Z,31.37
2017-10-19T01:35:00.449Z,26.58
2017-10-19T01:35:34.817Z,34.05
2017-10-19T01:36:09.548Z,32.13
2017-10-19T01:36:44.083Z,33.35
2017-10-19T01:37:18.467Z,32.15
2017-10-19T01:37:52.832Z,29.02
2017-10-19T01:38:27.188Z,30.80
2017-10-19T01:39:01.973Z,30.08
2017-10-19T01:39:36.151Z,35.53
2017-10-19T01:40:10.726Z,24.73
2017-10-19T01:40:45.116Z,31.37
2017-10-19T01:41:19.733Z,29.45
2017-10-19T01:41:54.300Z,33.13
2017-10-19T01:42:28.688Z,26.00
2017-10-19T01:43:03.104Z,22.05
2017-10-19T01:43:38.812Z,30.65
2017-10-19T01:44:13.175Z,34.70
2017-10-19T01:44:47.543Z,26.37
2017-10-19T01:45:21.972Z,28.62
2017-10-19T01:45:56.562Z,42.13
2017-10-19T01:46:31.719Z,32.97
2017-10-19T01:47:06.105Z,25.12
2017-10-19T01:47:40.536Z,27.37
2017-10-19T01:48:14.917Z,37.55
2017-10-19T01:48:49.357Z,26.60
2017-10-19T01:49:23.720Z,31.90
2017-10-19T01:50:01.139Z,31.60
2017-10-19T01:50:36.151Z,24.05
2017-10-19T01:51:10.519Z,32.92
2017-10-19T01:51:44.897Z,22.95
2017-10-19T01:52:19.808Z,32.97
2017-10-19T01:52:54.198Z,33.47
2017-10-19T01:53:28.917Z,34.20
2017-10-19T01:54:03.882Z,28.38
2017-10-19T01:54:38.615Z,28.30
2017-10-19T01:55:13.375Z,26.45
2017-10-19T01:55:48.127Z,23.65
2017-10-19T01:56:22.495Z,24.90
2017-10-19T01:56:57.221Z,30.58
2017-10-19T01:57:31.604Z,22.27
2017-10-19T01:58:06.306Z,24.33
2017-10-19T01:58:41.043Z,25.10
2017-10-19T01:59:15.739Z,26.60
2017-10-19T01:59:50.451Z,27.50
2017-10-19T02:00:24.815Z,18.98
2017-10-19T02:00:59.568Z,32.05
2017-10-19T02:01:34.308Z,24.10
2017-10-19T02:02:09.027Z,28.80
2017-10-19T02:02:43.735Z,20.90
2017-10-19T02:03:18.143Z,22.20
2017-10-19T02:03:52.855Z,23.90
2017-10-19T02:04:27.567Z,28.90
2017-10-19T02:05:02.277Z,22.45
2017-10-19T02:05:36.994Z,26.08
2017-10-19T02:06:12.026Z,26.12
2017-10-19T02:06:46.735Z,30.55
2017-10-19T02:07:21.446Z,28.02
2017-10-19T02:07:56.156Z,20.75
2017-10-19T02:08:30.514Z,21.67
2017-10-19T02:09:04.868Z,23.58
2017-10-19T02:09:39.234Z,27.00
2017-10-19T02:10:13.934Z,17.75
2017-10-19T02:10:48.639Z,29.83
2017-10-19T02:11:23.628Z,25.83
2017-10-19T02:11:58.375Z,16.60
2017-10-19T02:12:33.490Z,26.42
2017-10-19T02:13:08.218Z,19.80
2017-10-19T02:13:42.931Z,20.65
2017-10-19T02:14:17.644Z,19.17
2017-10-19T02:14:52.372Z,24.52
2017-10-19T02:15:27.075Z,20.77
2017-10-19T02:16:01.423Z,22.10
2017-10-19T02:16:35.818Z,23.05
2017-10-19T02:17:10.531Z,19.67
2017-10-19T02:17:45.351Z,18.48
2017-10-19T02:18:20.061Z,20.85
2017-10-19T02:18:54.785Z,26.67
2017-10-19T02:19:29.496Z,24.17
2017-10-19T02:20:03.859Z,23.12
2017-10-19T02:20:38.566Z,20.42
2017-10-19T02:21:13.284Z,22.45
2017-10-19T02:21:48.379Z,25.12
2017-10-19T02:22:23.122Z,16.58
2017-10-19T02:22:57.835Z,18.20
2017-10-19T02:23:32.552Z,12.37
2017-10-19T02:24:07.271Z,18.48
2017-10-19T02:24:41.976Z,15.73
2017-10-19T02:25:16.691Z,17.08
2017-10-19T02:25:51.407Z,17.50
2017-10-19T02:26:26.118Z,21.83
2017-10-19T02:27:02.740Z,18.50
2017-10-19T02:27:37.635Z,18.92
2017-10-19T02:28:12.351Z,18.10
2017-10-19T02:28:47.064Z,18.17
2017-10-19T02:29:21.779Z,21.00
2017-10-19T02:29:56.492Z,17.48
2017-10-19T02:30:31.709Z,23.40
2017-10-19T02:31:06.432Z,19.55
2017-10-19T02:31:41.148Z,27.92
2017-10-19T02:32:16.191Z,16.05
2017-10-19T02:32:50.907Z,15.60
2017-10-19T02:33:25.388Z,19.87
2017-10-19T02:34:00.100Z,12.75
2017-10-19T02:34:34.818Z,22.33
2017-10-19T02:35:09.542Z,16.27
2017-10-19T02:35:44.267Z,24.92
2017-10-19T02:36:18.982Z,19.08
2017-10-19T02:36:53.748Z,18.35
2017-10-19T02:37:28.821Z,19.70
2017-10-19T02:38:03.545Z,16.90
2017-10-19T02:38:38.252Z,19.05
2017-10-19T02:39:12.964Z,23.17
2017-10-19T02:39:47.678Z,19.33
2017-10-19T02:40:22.398Z,25.37
2017-10-19T02:40:57.104Z,20.08
2017-10-19T02:41:31.827Z,15.60
2017-10-19T02:42:06.535Z,16.27
2017-10-19T02:42:41.295Z,21.05
2017-10-19T02:43:16.244Z,20.15
2017-10-19T02:43:50.951Z,16.95
2017-10-19T02:44:25.665Z,20.33
2017-10-19T02:45:00.383Z,16.60
2017-10-19T02:45:35.097Z,18.95
2017-10-19T02:46:09.809Z,16.60
2017-10-19T02:46:44.521Z,22.20
2017-10-19T02:47:19.240Z,21.23
2017-10-19T02:47:54.287Z,18.37
2017-10-19T02:48:28.999Z,16.00
2017-10-19T02:49:03.700Z,9.95
2017-10-19T02:49:38.402Z,16.67
2017-10-19T02:50:13.114Z,17.65
2017-10-19T02:50:47.842Z,15.85
2017-10-19T02:51:22.564Z,17.65
2017-10-19T02:51:57.276Z,16.27
2017-10-19T02:52:31.628Z,16.52
2017-10-19T02:53:06.355Z,17.00
2017-10-19T02:53:41.056Z,22.37
2017-10-19T02:54:15.424Z,17.90
2017-10-19T02:54:49.804Z,13.57
2017-10-19T02:55:24.176Z,17.90
2017-10-19T02:55:58.884Z,15.98
2017-10-19T02:56:33.256Z,13.07
2017-10-19T02:57:07.635Z,15.25
2017-10-19T02:57:42.008Z,17.87
2017-10-19T02:58:16.727Z,15.25
2017-10-19T02:58:51.426Z,16.33
2017-10-19T02:59:25.799Z,15.23
2017-10-19T03:00:00.523Z,17.80
2017-10-19T03:00:35.225Z,15.18
2017-10-19T03:01:09.587Z,16.37
2017-10-19T03:01:44.288Z,11.30
2017-10-19T03:02:18.649Z,11.95
2017-10-19T03:02:53.024Z,12.68
2017-10-19T03:03:27.747Z,14.73
2017-10-19T03:04:02.472Z,18.25
2017-10-19T03:04:37.183Z,15.05
2017-10-19T03:05:11.885Z,20.10
2017-10-19T03:05:46.599Z,10.77
2017-10-19T03:06:21.308Z,15.75
2017-10-19T03:06:56.011Z,16.37
2017-10-19T03:07:30.718Z,14.63
2017-10-19T03:08:05.142Z,10.43
2017-10-19T03:08:40.168Z,14.93
2017-10-19T03:09:14.534Z,18.33
2017-10-19T03:09:48.891Z,17.15
2017-10-19T03:10:23.596Z,15.68
2017-10-19T03:10:58.305Z,16.08
2017-10-19T03:11:33.004Z,17.73
2017-10-19T03:12:07.730Z,17.33
2017-10-19T03:12:42.435Z,24.73
2017-10-19T03:13:17.139Z,13.62
2017-10-19T03:13:52.196Z,19.33
2017-10-19T03:14:26.894Z,18.30
2017-10-19T03:15:01.598Z,17.50
2017-10-19T03:15:36.312Z,14.23
2017-10-19T03:16:11.033Z,19.30
2017-10-19T03:16:45.748Z,18.65
2017-10-19T03:17:20.128Z,16.23
2017-10-19T03:17:54.487Z,20.45
2017-10-19T03:18:29.198Z,13.52
2017-10-19T03:19:04.229Z,14.13
2017-10-19T03:19:38.944Z,19.02
2017-10-19T03:20:13.665Z,19.30
2017-10-19T03:20:48.378Z,16.87
2017-10-19T03:21:23.083Z,12.18
2017-10-19T03:21:57.795Z,19.75
2017-10-19T03:22:32.507Z,15.32
2017-10-19T03:23:07.220Z,13.48
2017-10-19T03:23:41.980Z,17.00
2017-10-19T03:24:16.727Z,10.27
2017-10-19T03:24:51.439Z,18.20
2017-10-19T03:25:26.150Z,15.50
2017-10-19T03:26:00.969Z,17.45
2017-10-19T03:26:35.667Z,15.80
2017-10-19T03:27:10.380Z,14.05
2017-10-19T03:27:45.083Z,13.13
2017-10-19T03:28:19.791Z,14.93
2017-10-19T03:28:54.503Z,19.80
2017-10-19T03:29:29.252Z,15.77
2017-10-19T03:30:04.067Z,19.37
2017-10-19T03:30:38.441Z,16.35
2017-10-19T03:31:13.147Z,18.48
2017-10-19T03:31:47.867Z,20.67
2017-10-19T03:32:22.576Z,13.38
2017-10-19T03:32:56.942Z,22.90
2017-10-19T03:33:31.666Z,19.85
2017-10-19T03:34:06.379Z,15.32
2017-10-19T03:34:41.496Z,14.68
2017-10-19T03:35:16.211Z,16.92
2017-10-19T03:35:51.003Z,21.05
2017-10-19T03:36:25.723Z,15.00
2017-10-19T03:37:00.119Z,18.08
2017-10-19T03:37:34.824Z,13.95
2017-10-19T03:38:09.552Z,22.02
2017-10-19T03:38:44.272Z,15.07
2017-10-19T03:39:18.973Z,16.48
2017-10-19T03:39:54.066Z,15.68
2017-10-19T03:40:28.777Z,13.15
2017-10-19T03:41:03.475Z,15.10
2017-10-19T03:41:37.836Z,11.88
2017-10-19T03:42:12.584Z,18.98
2017-10-19T03:42:46.959Z,17.52
2017-10-19T03:43:21.670Z,14.95
2017-10-19T03:43:56.452Z,13.62
2017-10-19T03:44:30.829Z,12.52
2017-10-19T03:45:05.220Z,15.20
2017-10-19T03:45:39.586Z,9.75
2017-10-19T03:46:14.329Z,11.48
2017-10-19T03:46:49.029Z,19.87
2017-10-19T03:47:23.741Z,19.45
2017-10-19T03:47:58.111Z,23.05
2017-10-19T03:48:32.847Z,21.58
2017-10-19T03:49:07.548Z,11.18
2017-10-19T03:49:41.922Z,21.02
2017-10-19T03:50:17.046Z,15.65
2017-10-19T03:50:51.743Z,7.72
2017-10-19T03:51:26.463Z,12.55
2017-10-19T03:52:01.182Z,16.95
2017-10-19T03:52:35.904Z,10.65
2017-10-19T03:53:10.609Z,14.30
2017-10-19T03:53:44.967Z,23.92
2017-10-19T03:54:19.329Z,13.65
2017-10-19T03:54:54.031Z,14.93
2017-10-19T03:55:28.735Z,18.15
2017-10-19T03:56:03.428Z,10.20
2017-10-19T03:56:38.128Z,13.48
2017-10-19T03:57:12.823Z,15.65
2017-10-19T03:57:47.531Z,16.73
2017-10-19T03:58:22.243Z,13.48
2017-10-19T03:58:56.959Z,11.68
2017-10-19T03:59:31.712Z,17.05
2017-10-19T04:00:06.468Z,14.50
2017-10-19T04:00:40.868Z,16.25
2017-10-19T04:01:15.570Z,15.45
2017-10-19T04:01:50.285Z,18.40
2017-10-19T04:02:25.076Z,19.58
2017-10-19T04:02:59.792Z,11.00
2017-10-19T04:03:34.687Z,10.13
2017-10-19T04:04:09.393Z,14.23
2017-10-19T04:04:44.095Z,14.55
2017-10-19T04:05:18.811Z,14.43
2017-10-19T04:05:53.532Z,11.65
2017-10-19T04:06:28.240Z,13.35
2017-10-19T04:07:02.951Z,7.25
2017-10-19T04:07:37.667Z,20.23
2017-10-19T04:08:12.498Z,11.40
2017-10-19T04:08:47.204Z,13.27
2017-10-19T04:09:21.567Z,12.75
2017-10-19T04:09:56.288Z,14.18
2017-10-19T04:10:31.006Z,14.68
2017-10-19T04:11:05.743Z,11.43
2017-10-19T04:11:41.006Z,14.05
2017-10-19T04:12:15.707Z,13.55
2017-10-19T04:12:50.420Z,12.63
2017-10-19T04:13:25.125Z,14.75
2017-10-19T04:13:59.824Z,9.50
2017-10-19T04:14:34.543Z,14.00
2017-10-19T04:15:09.257Z,14.55
2017-10-19T04:15:43.972Z,15.90
2017-10-19T04:16:18.709Z,11.63
2017-10-19T04:16:53.415Z,12.60
2017-10-19T04:17:28.111Z,10.70
2017-10-19T04:18:02.828Z,11.55
2017-10-19T04:18:37.985Z,16.25
2017-10-19T04:19:12.703Z,13.05
2017-10-19T04:19:47.409Z,13.65
2017-10-19T04:20:22.190Z,14.45
2017-10-19T04:20:56.923Z,15.63
2017-10-19T04:21:31.657Z,20.15
2017-10-19T04:22:06.470Z,11.85
2017-10-19T04:22:41.171Z,17.55
2017-10-19T04:23:15.882Z,14.20
2017-10-19T04:23:50.598Z,12.88
2017-10-19T04:24:25.292Z,9.88
2017-10-19T04:25:00.011Z,14.80
2017-10-19T04:25:34.722Z,19.40
2017-10-19T04:26:09.431Z,16.33
2017-10-19T04:26:44.163Z,10.00
2017-10-19T04:27:18.872Z,12.73
2017-10-19T04:27:53.570Z,12.20
2017-10-19T04:28:28.286Z,15.40
2017-10-19T04:29:03.000Z,12.32
2017-10-19T04:29:37.690Z,9.65
2017-10-19T04:30:12.415Z,10.68
2017-10-19T04:30:47.125Z,7.80
2017-10-19T04:31:21.839Z,15.85
2017-10-19T04:31:56.570Z,16.17
2017-10-19T04:32:31.088Z,18.48
2017-10-19T04:33:05.791Z,17.17
2017-10-19T04:33:40.508Z,17.90
2017-10-19T04:34:15.219Z,15.02
2017-10-19T04:34:49.933Z,15.85
2017-10-19T04:35:24.636Z,15.05
2017-10-19T04:35:59.351Z,13.48
2017-10-19T04:36:34.064Z,15.50
2017-10-19T04:37:09.159Z,9.63
2017-10-19T04:37:43.875Z,13.65
2017-10-19T04:38:18.597Z,12.70
2017-10-19T04:38:53.339Z,13.07
2017-10-19T04:39:28.056Z,15.55
2017-10-19T04:40:02.966Z,12.27
2017-10-19T04:40:37.674Z,9.38
2017-10-19T04:41:12.414Z,11.38
2017-10-19T04:41:47.152Z,17.70
2017-10-19T04:42:22.199Z,9.80
2017-10-19T04:42:56.924Z,11.35
2017-10-19T04:43:31.630Z,12.77
2017-10-19T04:44:06.362Z,10.70
2017-10-19T04:44:41.080Z,14.43
2017-10-19T04:45:15.798Z,15.25
2017-10-19T04:45:50.527Z,17.55
2017-10-19T04:46:25.263Z,15.25
2017-10-19T04:46:59.784Z,10.52
2017-10-19T04:47:34.768Z,10.98
2017-10-19T04:48:09.479Z,14.98
2017-10-19T04:48:44.196Z,14.82
2017-10-19T04:49:18.739Z,12.57
2017-10-19T04:49:53.463Z,15.02
2017-10-19T04:50:28.177Z,9.57
2017-10-19T04:51:02.886Z,13.70
2017-10-19T04:51:37.476Z,15.60
2017-10-19T04:52:12.171Z,16.20
2017-10-19T04:52:46.929Z,10.05
2017-10-19T04:53:21.639Z,14.95
2017-10-19T04:53:56.358Z,15.18
2017-10-19T04:54:31.071Z,13.40
2017-10-19T04:55:05.776Z,10.38
2017-10-19T04:55:40.493Z,10.73
2017-10-19T04:56:15.237Z,12.93
2017-10-19T04:56:49.958Z,14.13
2017-10-19T04:57:24.658Z,13.75
2017-10-19T04:57:59.410Z,12.35
2017-10-19T04:58:34.149Z,12.68
2017-10-19T04:59:08.851Z,10.02
2017-10-19T04:59:43.560Z,15.35
2017-10-19T05:00:18.273Z,12.50
2017-10-19T05:00:52.988Z,12.35
2017-10-19T05:01:27.700Z,9.13
2017-10-19T05:02:02.552Z,15.18
2017-10-19T05:02:37.272Z,10.25
2017-10-19T05:03:12.004Z,13.13
2017-10-19T05:03:46.728Z,17.20
2017-10-19T05:04:21.263Z,19.90
2017-10-19T05:04:55.978Z,17.48
2017-10-19T05:05:30.701Z,16.08
2017-10-19T05:06:05.412Z,10.05
2017-10-19T05:06:40.127Z,18.12
2017-10-19T05:07:14.832Z,17.85
2017-10-19T05:07:49.370Z,12.43
2017-10-19T05:08:24.407Z,9.15
2017-10-19T05:08:59.111Z,12.20
2017-10-19T05:09:33.827Z,17.42
2017-10-19T05:10:08.200Z,12.93
2017-10-19T05:10:42.575Z,16.23
2017-10-19T05:11:16.949Z,12.82
2017-10-19T05:11:51.316Z,12.90
2017-10-19T05:12:25.684Z,14.23
2017-10-19T05:13:00.031Z,11.18
2017-10-19T05:13:34.436Z,13.35
2017-10-19T05:14:08.808Z,11.35
2017-10-19T05:14:43.543Z,16.50
2017-10-19T05:15:17.920Z,11.52
2017-10-19T05:15:52.612Z,9.35
2017-10-19T05:16:27.357Z,16.30
2017-10-19T05:17:01.795Z,14.20
2017-10-19T05:17:36.555Z,10.82
2017-10-19T05:18:14.141Z,11.57
2017-10-19T05:18:48.510Z,16.70
2017-10-19T05:19:23.220Z,14.38
2017-10-19T05:19:57.929Z,15.13
2017-10-19T05:20:32.639Z,13.93
2017-10-19T05:21:07.399Z,13.43
2017-10-19T05:21:42.111Z,11.63
2017-10-19T05:22:16.819Z,10.02
2017-10-19T05:22:51.532Z,15.75
2017-10-19T05:23:25.900Z,12.77
2017-10-19T05:24:00.887Z,15.18
2017-10-19T05:24:35.601Z,11.20
2017-10-19T05:25:10.349Z,11.68
2017-10-19T05:25:45.065Z,13.77
2017-10-19T05:26:19.775Z,19.58
2017-10-19T05:26:54.496Z,14.48
2017-10-19T05:27:29.216Z,14.52
2017-10-19T05:28:03.922Z,16.05
2017-10-19T05:28:39.256Z,14.85
2017-10-19T05:29:13.999Z,10.07
2017-10-19T05:29:48.706Z,14.00
2017-10-19T05:30:23.425Z,13.70
2017-10-19T05:30:57.784Z,12.45
2017-10-19T05:31:32.418Z,12.50
2017-10-19T05:32:07.158Z,20.05
2017-10-19T05:32:41.861Z,9.43
2017-10-19T05:33:16.595Z,15.80
2017-10-19T05:33:51.403Z,20.75
2017-10-19T05:34:26.475Z,9.60
2017-10-19T05:35:01.201Z,14.18
2017-10-19T05:35:35.923Z,15.35
2017-10-19T05:36:10.638Z,12.90
2017-10-19T05:36:45.384Z,17.70
2017-10-19T05:37:20.092Z,12.73
2017-10-19T05:37:54.828Z,16.17
2017-10-19T05:38:29.541Z,14.13
2017-10-19T05:39:03.921Z,13.55
2017-10-19T05:39:38.645Z,11.80
2017-10-19T05:40:13.371Z,14.90
2017-10-19T05:40:48.345Z,21.62
2017-10-19T05:41:23.064Z,15.35
2017-10-19T05:41:57.777Z,21.70
2017-10-19T05:42:34.367Z,15.45
2017-10-19T05:43:09.079Z,18.10
2017-10-19T05:43:43.851Z,12.77
2017-10-19T05:44:18.572Z,20.27
2017-10-19T05:44:53.324Z,18.17
2017-10-19T05:45:28.034Z,18.58
2017-10-19T05:46:02.741Z,15.85
2017-10-19T05:46:37.461Z,15.90
2017-10-19T05:47:12.183Z,18.15
2017-10-19T05:47:46.879Z,24.27
2017-10-19T05:48:21.601Z,18.42
2017-10-19T05:48:56.349Z,17.80
2017-10-19T05:49:30.914Z,20.98
2017-10-19T05:50:05.899Z,20.65
2017-10-19T05:50:40.630Z,18.70
2017-10-19T05:51:14.999Z,19.92
2017-10-19T05:51:49.713Z,19.37
2017-10-19T05:52:24.428Z,24.65
2017-10-19T05:52:59.142Z,23.52
2017-10-19T05:53:33.855Z,17.48
2017-10-19T05:54:08.608Z,25.48
2017-10-19T05:54:43.319Z,21.73
2017-10-19T05:55:18.070Z,16.73
2017-10-19T05:55:52.788Z,15.63
2017-10-19T05:56:27.154Z,19.23
2017-10-19T05:57:01.886Z,23.02
2017-10-19T05:57:36.590Z,21.85
2017-10-19T05:58:11.301Z,21.83
2017-10-19T05:58:45.668Z,22.30
2017-10-19T05:59:20.249Z,22.05
2017-10-19T05:59:54.979Z,22.00
2017-10-19T06:00:29.704Z,17.00
2017-10-19T06:01:04.431Z,21.92
2017-10-19T06:01:39.139Z,19.40
2017-10-19T06:02:13.880Z,19.75
2017-10-19T06:02:48.585Z,18.27
2017-10-19T06:03:23.324Z,20.80
2017-10-19T06:03:58.030Z,14.55
2017-10-19T06:04:32.748Z,17.02
2017-10-19T06:05:07.486Z,18.85
2017-10-19T06:05:42.226Z,21.55
2017-10-19T06:06:16.931Z,18.67
2017-10-19T06:06:51.689Z,21.17
2017-10-19T06:07:26.407Z,22.27
2017-10-19T06:08:01.132Z,17.58
2017-10-19T06:08:35.841Z,20.95
2017-10-19T06:09:10.931Z,19.23
2017-10-19T06:09:45.637Z,17.70
2017-10-19T06:10:20.345Z,18.70
2017-10-19T06:10:55.076Z,20.73
2017-10-19T06:11:29.783Z,20.45
2017-10-19T06:12:04.482Z,20.60
2017-10-19T06:12:39.179Z,22.13
2017-10-19T06:13:13.980Z,23.83
2017-10-19T06:13:48.707Z,23.58
2017-10-19T06:14:23.469Z,16.42
2017-10-19T06:14:58.172Z,11.57
2017-10-19T06:15:32.879Z,15.82
2017-10-19T06:16:07.643Z,25.37
2017-10-19T06:16:42.351Z,17.45
2017-10-19T06:17:16.717Z,16.33
2017-10-19T06:17:51.428Z,15.40
2017-10-19T06:18:26.149Z,20.23
2017-10-19T06:19:00.856Z,21.77
2017-10-19T06:19:35.568Z,16.15
2017-10-19T06:20:10.271Z,29.25
2017-10-19T06:20:44.981Z,19.30
2017-10-19T06:21:19.743Z,14.38
2017-10-19T06:21:54.735Z,26.67
2017-10-19T06:22:29.452Z,21.65
2017-10-19T06:23:04.186Z,34.90
2017-10-19T06:23:38.884Z,31.12
2017-10-19T06:24:13.587Z,30.00
2017-10-19T06:24:48.304Z,23.75
2017-10-19T06:25:23.023Z,29.37
2017-10-19T06:25:57.729Z,29.20
2017-10-19T06:26:32.736Z,29.90
2017-10-19T06:27:07.454Z,23.02
2017-10-19T06:27:42.176Z,18.05
2017-10-19T06:28:16.892Z,20.83
2017-10-19T06:28:51.605Z,23.40
2017-10-19T06:29:26.390Z,20.88
2017-10-19T06:30:01.091Z,21.45
2017-10-19T06:30:35.808Z,21.67
2017-10-19T06:31:10.518Z,18.08
2017-10-19T06:31:45.249Z,21.62
2017-10-19T06:32:19.968Z,20.60
2017-10-19T06:32:54.682Z,23.35
2017-10-19T06:33:29.406Z,20.20
2017-10-19T06:34:04.117Z,16.65
2017-10-19T06:34:38.855Z,18.92
2017-10-19T06:35:13.558Z,25.67
2017-10-19T06:35:48.277Z,18.00
2017-10-19T06:36:22.988Z,16.80
2017-10-19T06:36:57.743Z,23.60
2017-10-19T06:37:32.469Z,20.17
2017-10-19T06:38:07.177Z,16.87
2017-10-19T06:38:41.879Z,34.75
2017-10-19T06:39:16.636Z,39.85
2017-10-19T06:39:51.348Z,19.62
2017-10-19T06:40:26.088Z,23.50
2017-10-19T06:41:00.807Z,26.00
2017-10-19T06:41:35.586Z,26.90
2017-10-19T06:42:10.325Z,27.60
2017-10-19T06:42:45.045Z,23.08
2017-10-19T06:43:19.758Z,18.48
2017-10-19T06:43:54.478Z,15.32
2017-10-19T06:44:29.218Z,17.17
2017-10-19T06:45:03.939Z,20.33
2017-10-19T06:45:38.660Z,14.98
2017-10-19T06:46:13.368Z,15.40
2017-10-19T06:46:48.081Z,18.70
2017-10-19T06:47:22.831Z,24.55
2017-10-19T06:47:57.546Z,18.83
2017-10-19T06:48:32.258Z,23.08
2017-10-19T06:49:06.973Z,17.70
2017-10-19T06:49:41.687Z,15.90
2017-10-19T06:50:16.412Z,20.98
2017-10-19T06:50:51.113Z,22.83
2017-10-19T06:51:25.858Z,24.05
2017-10-19T06:52:00.568Z,18.48
2017-10-19T06:52:35.308Z,18.45
2017-10-19T06:53:10.019Z,15.30
2017-10-19T06:53:44.736Z,15.77
2017-10-19T06:54:19.447Z,17.48
2017-10-19T06:54:54.157Z,15.05
2017-10-19T06:55:28.877Z,20.95
2017-10-19T06:56:03.576Z,23.55
2017-10-19T06:56:38.311Z,18.23
2017-10-19T06:57:13.031Z,16.30
2017-10-19T06:57:47.760Z,16.80
2017-10-19T06:58:22.483Z,19.25
2017-10-19T06:58:57.188Z,15.23
2017-10-19T06:59:31.888Z,20.05
2017-10-19T07:00:06.599Z,19.27
2017-10-19T07:00:41.316Z,12.82
2017-10-19T07:01:16.036Z,25.10
2017-10-19T07:01:50.752Z,18.08
2017-10-19T07:02:25.505Z,14.73
2017-10-19T07:03:00.242Z,15.80
2017-10-19T07:03:34.951Z,25.52
2017-10-19T07:04:09.721Z,23.75
2017-10-19T07:04:44.483Z,15.18
2017-10-19T07:05:19.198Z,24.73
2017-10-19T07:05:53.658Z,16.73
2017-10-19T07:06:28.355Z,18.77
2017-10-19T07:07:03.103Z,19.87
2017-10-19T07:07:37.468Z,21.55
2017-10-19T07:08:12.207Z,15.57
2017-10-19T07:08:46.913Z,15.45
2017-10-19T07:09:21.616Z,12.80
2017-10-19T07:09:56.327Z,9.88
2017-10-19T07:10:30.424Z,18.50
2017-10-19T07:11:05.139Z,17.35
2017-10-19T07:11:39.855Z,17.55
2017-10-19T07:12:14.570Z,17.73
2017-10-19T07:12:49.013Z,20.30
2017-10-19T07:13:23.757Z,22.25
2017-10-19T07:13:58.472Z,21.58
2017-10-19T07:14:33.181Z,19.75
2017-10-19T07:15:07.895Z,24.95
2017-10-19T07:15:42.258Z,14.95
2017-10-19T07:16:17.074Z,14.45
2017-10-19T07:16:51.803Z,24.17
2017-10-19T07:17:26.519Z,17.05
2017-10-19T07:18:01.240Z,14.70
2017-10-19T07:18:35.984Z,16.33
2017-10-19T07:19:10.440Z,13.80
2017-10-19T07:19:45.153Z,14.80
2017-10-19T07:20:19.865Z,14.93
2017-10-19T07:20:54.576Z,11.77
2017-10-19T07:21:29.276Z,16.85
2017-10-19T07:22:03.717Z,26.33
2017-10-19T07:22:38.434Z,31.08
2017-10-19T07:23:13.150Z,19.83
2017-10-19T07:23:47.883Z,17.10
2017-10-19T07:24:22.588Z,12.50
2017-10-19T07:24:57.313Z,17.52
2017-10-19T07:25:32.034Z,15.88
2017-10-19T07:26:06.123Z,18.90
2017-10-19T07:26:40.827Z,16.65
2017-10-19T07:27:15.195Z,19.33
2017-10-19T07:27:50.019Z,34.45
2017-10-19T07:28:24.748Z,30.98